FYOA

Ondangwa Airport

Ondangwa, Namibia
TAF FYOA 182000Z 1821/1906 18006KT 9999 -TSRA FEW040CB BECMG 1900/1902 00000KT NSW NSC
Issued Valid From Valid To
Jan-18 @ 20:00 UTC
(6 hours ago)
Jan-18 @ 21:00 UTC
(5 hours ago)
Jan-19 @ 06:00 UTC
(in 4 hours)
Expired Click to View Jan-18 @ 21:00 to Jan-19 @ 00:00
TAF FYOA 182000Z 1821/1906 18006KT 9999 -TSRA FEW040CB
Wind Visibility Clouds Conditions
180° at 6 knots 10,000+ meters
  • Few at 4,000' AGL
  • Light Thunderstorm
  • Light Rain
Becoming Jan-19 @ 00:00 to Jan-19 @ 06:00
BECMG 1900/1902 00000KT NSW NSC
Visibility Clouds Conditions
10,000+ meters
  • No significant clouds
TAF FYOA 182000Z 1821/1906 18006KT 9999 -TSRA FEW040CB BECMG 1900/1902 00000KT NSW NSC
Issued Jan-18 @ 20:00 UTC
(6 hours ago)
Valid From Jan-18 @ 21:00 UTC
(5 hours ago)
Valid To Jan-19 @ 06:00 UTC
(in 4 hours)
Jan-18 @ 21:00 - Jan-19 @ 00:00
Wind Visibility
180° at 6 knots 10,000+ meters
Clouds
  • Few at 4,000' AGL
Conditions
  • Light Thunderstorm
  • Light Rain
Becoming Jan-19 @ 00:00 - Jan-19 @ 06:00
Clouds
  • No significant clouds
Conditions